Hampton, New Hampshire
Current Conditions -  °F | °C
As of 2:58 PM on Monday 24 Nov 2014 (Local Time) from KPSM Reporting Station
Broken Clouds Broken Clouds  
Wind Chill: 64°   Ceiling: 1500
Heat Index: 64°   Visibility: 10mi
Dew Point: 61°   Wind: 14mph
Humidity: 92%   Direction: 190°S
Pressure: 29.55"   Gusts: 20mph
Location:  42.94°N, 70.83°W
Report Text: KPSM 241958Z 19012G17KT 10SM FEW005 BKN015 18/16 A2955 RMK AO2A SLP010 T01750162
Loading
Personal Weather Stations






























Interactive Weather Map New forecast layout! Learn more

10-Day Weather Forecast

Advertisements
Track Severe Weather on mobile